Time;durP1;ratioP1;P1;durP2;ratioP2;P2;SDS_P1;SDS_P2;PMS_P1;PMS_P2;Temp;Humidity;BMP_temperature;BMP_pressure;BME280_temperature;BME280_humidity;BME280_pressure;Samples;Min_cycle;Max_cycle;Signal;HPM_P1;HPM_P2
2024/01/27 00:00:17;;;;;;;270.05;124.20;;;;;;;1.17;82.34;100047.09;6204409;23;20021;-79
2024/01/27 00:03:04;;;;;;;261.70;121.72;;;;;;;1.22;83.16;100047.44;6203982;23;20024;-78
2024/01/27 00:05:49;;;;;;;258.70;119.78;;;;;;;1.17;83.11;100041.88;6203470;23;20020;-81
2024/01/27 00:08:35;;;;;;;230.38;105.05;;;;;;;1.21;83.17;100046.63;6203837;23;20020;-81
2024/01/27 00:11:23;;;;;;;211.73;91.75;;;;;;;1.27;82.56;100053.91;6182475;23;20020;-79
2024/01/27 00:14:08;;;;;;;208.23;90.25;;;;;;;1.24;82.06;100035.06;6183377;23;20016;-79
2024/01/27 00:16:53;;;;;;;195.88;86.25;;;;;;;1.31;83.03;100050.00;6182492;23;20314;-79
2024/01/27 00:19:39;;;;;;;189.30;85.55;;;;;;;1.28;83.33;100054.72;6203129;23;20025;-79
2024/01/27 00:22:24;;;;;;;170.63;77.60;;;;;;;1.29;83.37;100057.19;6182528;23;20025;-78
2024/01/27 00:25:11;;;;;;;166.00;77.05;;;;;;;1.32;83.38;100066.56;6203994;23;20021;-81
2024/01/27 00:27:56;;;;;;;190.10;80.43;;;;;;;1.35;82.19;100069.69;6183308;23;20318;-79
2024/01/27 00:30:41;;;;;;;173.60;75.40;;;;;;;1.25;82.31;100061.06;6182920;23;20418;-79
2024/01/27 00:33:27;;;;;;;167.00;76.35;;;;;;;1.27;82.50;100079.28;6186539;23;20016;-80
2024/01/27 00:36:13;;;;;;;193.35;87.13;;;;;;;1.22;83.28;100094.59;6215729;23;20315;-79
2024/01/27 00:38:58;;;;;;;196.43;84.32;;;;;;;1.29;83.81;100099.09;6218884;23;20116;-79
2024/01/27 00:41:44;;;;;;;180.85;79.22;;;;;;;1.28;84.12;100092.19;6215511;23;20021;-80
2024/01/27 00:44:29;;;;;;;168.13;75.72;;;;;;;1.29;84.20;100101.72;6200956;23;20020;-80
2024/01/27 00:47:14;;;;;;;175.30;73.70;;;;;;;1.33;83.94;100105.69;6203326;23;20328;-79
2024/01/27 00:50:00;;;;;;;146.60;66.60;;;;;;;1.31;83.74;100096.31;6203274;23;20314;-80
2024/01/27 00:52:45;;;;;;;151.10;64.53;;;;;;;1.40;85.07;100116.38;6181638;23;20422;-80
2024/01/27 00:55:30;;;;;;;141.02;61.35;;;;;;;1.43;84.92;100120.50;6182248;23;20391;-80
2024/01/27 00:58:16;;;;;;;142.65;61.00;;;;;;;1.42;84.83;100124.09;6182277;23;20017;-79
2024/01/27 01:01:02;;;;;;;148.20;62.33;;;;;;;1.40;85.19;100105.91;6181798;23;20021;-79
2024/01/27 01:03:47;;;;;;;146.52;58.28;;;;;;;1.46;84.86;100123.66;6181705;23;20323;-77
2024/01/27 01:06:33;;;;;;;128.68;55.88;;;;;;;1.38;85.16;100100.84;6182198;23;20016;-79
2024/01/27 01:09:18;;;;;;;150.32;61.92;;;;;;;1.52;84.50;100124.84;6202366;23;20020;-78
2024/01/27 01:12:04;;;;;;;136.45;59.33;;;;;;;1.46;85.03;100105.31;6161063;23;20025;-79
2024/01/27 01:14:50;;;;;;;137.85;57.15;;;;;;;1.43;85.78;100089.91;6202612;23;20310;-79
2024/01/27 01:17:35;;;;;;;135.45;59.45;;;;;;;1.45;86.58;100101.06;6181818;23;20029;-78
2024/01/27 01:20:20;;;;;;;133.15;59.22;;;;;;;1.39;86.98;100099.03;6181743;23;20418;-79
2024/01/27 01:23:07;;;;;;;132.57;55.55;;;;;;;1.43;86.94;100078.59;6203901;23;20324;-79
2024/01/27 01:25:53;;;;;;;122.95;54.00;;;;;;;1.52;87.16;100078.53;6182323;23;20017;-78
2024/01/27 01:28:38;;;;;;;119.70;50.60;;;;;;;1.60;87.05;100064.69;6202253;23;20017;-78
2024/01/27 01:31:23;;;;;;;132.68;53.75;;;;;;;1.53;86.52;100048.72;6203152;23;20315;-78
2024/01/27 01:34:08;;;;;;;115.35;52.60;;;;;;;1.46;86.41;100050.31;6204756;23;20021;-80
2024/01/27 01:36:54;;;;;;;126.00;51.58;;;;;;;1.56;86.94;100068.56;6203068;23;20020;-79
2024/01/27 01:39:40;;;;;;;118.40;49.97;;;;;;;1.49;87.57;100051.81;6203552;23;20318;-81
2024/01/27 01:42:25;;;;;;;126.93;53.65;;;;;;;1.46;87.61;100044.25;6204212;23;20029;-80
2024/01/27 01:45:11;;;;;;;123.13;51.60;;;;;;;1.50;88.15;100032.47;6196860;23;20024;-79
2024/01/27 01:47:56;;;;;;;119.28;51.70;;;;;;;1.47;87.80;100030.16;6181150;23;20314;-80
2024/01/27 01:50:42;;;;;;;116.45;52.63;;;;;;;1.37;88.98;100014.53;6202758;23;20323;-80
2024/01/27 01:53:28;;;;;;;121.47;54.67;;;;;;;1.48;88.97;100024.78;6208899;23;20020;-78
2024/01/27 01:56:16;;;;;;;113.80;52.08;;;;;;;1.44;88.70;100025.22;6189192;23;20017;-78
2024/01/27 01:59:01;;;;;;;118.55;55.17;;;;;;;1.41;88.93;100018.53;6218327;23;20017;-78
2024/01/27 02:01:48;;;;;;;125.53;56.83;;;;;;;1.42;89.19;100011.47;6213152;23;20016;-78
2024/01/27 02:04:45;;;;;;;125.85;54.70;;;;;;;1.46;90.07;100012.81;6205758;23;20020;-80
2024/01/27 02:07:30;;;;;;;116.60;45.22;;;;;;;1.40;88.51;100001.13;6181564;23;20314;-78
2024/01/27 02:10:17;;;;;;;106.07;46.83;;;;;;;1.42;88.74;99987.91;6202446;23;20032;-79
2024/01/27 02:13:22;;;;;;;92.43;37.90;;;;;;;1.44;88.51;99993.78;6181972;23;20445;-78
2024/01/27 02:16:11;;;;;;;89.55;36.53;;;;;;;1.38;88.76;99988.22;6163111;23;20453;-80
2024/01/27 02:18:57;;;;;;;84.45;37.90;;;;;;;1.37;88.71;99991.78;6202494;23;20073;-78
2024/01/27 02:21:42;;;;;;;76.35;38.05;;;;;;;1.35;89.60;99987.69;6181606;23;20028;-80
2024/01/27 02:24:31;;;;;;;83.00;36.92;;;;;;;1.41;89.27;99999.34;6181699;23;20027;-79
2024/01/27 02:27:16;;;;;;;74.47;35.38;;;;;;;1.43;89.30;99989.53;6181665;23;20322;-79
2024/01/27 02:30:05;;;;;;;68.72;35.85;;;;;;;1.41;89.76;99983.63;6202073;23;20323;-80
2024/01/27 02:32:52;;;;;;;86.50;38.80;;;;;;;1.43;90.41;99979.88;6181232;23;20462;-80
2024/01/27 02:35:38;;;;;;;129.55;51.42;;;;;;;1.44;90.54;99983.31;6181413;23;20323;-81
2024/01/27 02:38:23;;;;;;;144.35;60.00;;;;;;;1.34;89.97;99976.38;6202024;23;20043;-80
2024/01/27 02:41:10;;;;;;;115.95;53.92;;;;;;;1.33;90.29;99985.22;6202694;23;20323;-79
2024/01/27 02:43:56;;;;;;;136.70;55.53;;;;;;;1.35;90.61;99967.56;6200988;23;20061;-80
2024/01/27 02:46:45;;;;;;;122.97;52.15;;;;;;;1.30;90.49;99961.13;6181138;23;20043;-83
2024/01/27 02:49:30;;;;;;;115.32;46.35;;;;;;;1.34;90.84;99963.28;6202533;23;20315;-79
2024/01/27 02:52:16;;;;;;;425.15;111.25;;;;;;;1.23;90.54;99947.81;6180993;23;20052;-79
2024/01/27 02:55:04;;;;;;;106.22;39.08;;;;;;;1.33;90.11;99953.78;6202225;23;20322;-80
2024/01/27 02:57:49;;;;;;;63.63;30.33;;;;;;;1.36;90.02;99953.47;6201997;23;20028;-81
2024/01/27 03:00:35;;;;;;;61.58;33.10;;;;;;;1.39;89.54;99957.59;6180218;23;20311;-80
2024/01/27 03:03:20;;;;;;;74.47;34.15;;;;;;;1.35;90.16;99946.59;6181074;23;20444;-80
2024/01/27 03:06:06;;;;;;;71.85;34.28;;;;;;;1.34;90.29;99952.78;6202683;23;20027;-79
2024/01/27 03:08:51;;;;;;;74.70;35.95;;;;;;;1.26;90.59;99937.03;6180788;23;20035;-80
2024/01/27 03:11:37;;;;;;;73.00;34.75;;;;;;;1.45;90.92;99959.59;6202230;23;20445;-79
2024/01/27 03:14:23;;;;;;;66.22;34.65;;;;;;;1.35;91.33;99946.59;6184447;23;20032;-79
2024/01/27 03:17:09;;;;;;;67.82;32.42;;;;;;;1.48;90.98;99966.34;6209426;23;20027;-80
2024/01/27 03:19:54;;;;;;;73.72;33.22;;;;;;;1.46;90.85;99963.03;6216728;23;20028;-79
2024/01/27 03:22:41;;;;;;;68.95;34.33;;;;;;;1.50;91.82;99953.91;6211585;23;20023;-80
2024/01/27 03:25:27;;;;;;;76.93;36.22;;;;;;;1.56;91.27;99958.53;6184084;23;20460;-82
2024/01/27 03:28:12;;;;;;;77.00;36.42;;;;;;;1.52;91.62;99973.72;6180300;23;20044;-79
2024/01/27 03:30:59;;;;;;;85.68;36.30;;;;;;;1.59;92.01;99980.00;6180773;23;20318;-80
2024/01/27 03:33:44;;;;;;;78.18;35.10;;;;;;;1.58;91.24;100020.28;6180865;23;20430;-80
2024/01/27 03:36:30;;;;;;;68.75;33.90;;;;;;;1.59;91.79;100058.59;6180898;23;20433;-77
2024/01/27 03:39:16;;;;;;;65.70;31.58;;;;;;;1.58;91.71;100090.19;6201470;23;20320;-79
2024/01/27 03:42:01;;;;;;;73.25;34.63;;;;;;;1.46;91.51;100088.78;6180075;23;20028;-80
2024/01/27 03:44:47;;;;;;;72.82;35.00;;;;;;;1.45;91.79;100118.56;6196380;23;20031;-79
2024/01/27 03:47:31;;;;;;;50.33;25.58;;;;;;;1.60;92.09;100172.94;6201607;23;20028;-78
2024/01/27 03:50:17;;;;;;;59.25;29.30;;;;;;;1.72;92.01;100170.06;6200810;23;20028;-80
2024/01/27 03:53:02;;;;;;;69.80;33.88;;;;;;;1.76;93.11;100188.00;6201336;23;20319;-80
2024/01/27 03:55:47;;;;;;;49.72;25.23;;;;;;;2.00;92.80;100212.78;6179821;23;20028;-78
2024/01/27 03:58:32;;;;;;;18.27;8.50;;;;;;;2.85;92.58;100228.81;6180261;23;20047;-77
2024/01/27 04:01:17;;;;;;;22.55;12.82;;;;;;;3.57;90.44;100226.69;6180223;23;20027;-77
2024/01/27 04:04:03;;;;;;;15.52;6.88;;;;;;;3.85;88.33;100224.63;6202677;23;20043;-79
2024/01/27 04:06:49;;;;;;;20.88;7.93;;;;;;;3.91;87.74;100256.34;6201236;23;20028;-78
2024/01/27 04:09:34;;;;;;;16.33;8.18;;;;;;;3.78;88.01;100215.75;6159061;23;20027;-78
2024/01/27 04:12:20;;;;;;;18.52;9.23;;;;;;;3.85;87.46;100227.25;6203825;23;20044;-79
2024/01/27 04:15:06;;;;;;;9.50;5.95;;;;;;;3.77;88.28;100216.72;6181954;23;20031;-79
2024/01/27 04:17:51;;;;;;;18.08;8.90;;;;;;;3.82;87.92;100214.44;6202891;23;20027;-80
2024/01/27 04:20:37;;;;;;;15.63;9.20;;;;;;;3.87;88.60;100236.63;6182275;23;20449;-78
2024/01/27 04:23:22;;;;;;;21.30;9.38;;;;;;;3.84;89.12;100230.88;6202815;23;20028;-78
2024/01/27 04:26:09;;;;;;;18.23;9.00;;;;;;;3.84;89.44;100238.75;6181947;23;20027;-79
2024/01/27 04:28:54;;;;;;;14.82;9.05;;;;;;;3.94;88.95;100244.69;6182349;23;20040;-80
2024/01/27 04:31:40;;;;;;;13.98;8.18;;;;;;;3.97;89.17;100248.81;6202457;23;20318;-78
2024/01/27 04:34:26;;;;;;;15.27;8.05;;;;;;;4.12;88.33;100263.78;6184600;23;20027;-79
2024/01/27 04:37:11;;;;;;;14.38;7.35;;;;;;;4.18;87.65;100278.94;6207285;23;20449;-79
2024/01/27 04:39:56;;;;;;;13.95;8.05;;;;;;;4.17;88.11;100284.38;6218491;23;20031;-78
2024/01/27 04:42:42;;;;;;;16.00;9.38;;;;;;;4.18;87.86;100307.06;6191602;23;20027;-78
2024/01/27 04:45:28;;;;;;;18.00;8.68;;;;;;;4.33;87.27;100312.53;6207408;23;20047;-78
2024/01/27 04:48:13;;;;;;;13.48;8.00;;;;;;;4.33;86.93;100305.44;6161203;23;20028;-79
2024/01/27 04:50:59;;;;;;;16.88;6.47;;;;;;;4.27;87.20;100295.56;6181805;23;20043;-80
2024/01/27 04:53:45;;;;;;;15.77;8.75;;;;;;;4.30;87.13;100300.50;6203160;23;20043;-79
2024/01/27 04:56:30;;;;;;;13.88;7.90;;;;;;;4.44;86.80;100335.88;6182023;23;20441;-78
2024/01/27 04:59:16;;;;;;;16.48;8.45;;;;;;;4.36;87.39;100320.91;6181636;23;20032;-80
2024/01/27 05:02:01;;;;;;;11.55;5.53;;;;;;;4.43;85.81;100315.81;6182106;23;20441;-78
2024/01/27 05:04:46;;;;;;;22.02;4.20;;;;;;;4.64;84.91;100333.78;6202944;23;20433;-78
2024/01/27 05:07:31;;;;;;;8.07;3.80;;;;;;;4.78;83.04;100350.72;6181610;23;20322;-78
2024/01/27 05:10:17;;;;;;;7.03;4.35;;;;;;;4.93;81.71;100371.97;6202890;23;20330;-79
2024/01/27 05:13:03;;;;;;;6.80;4.05;;;;;;;4.89;81.33;100360.94;6160423;23;20437;-79
2024/01/27 05:15:49;;;;;;;7.97;4.53;;;;;;;4.79;81.92;100368.16;6181783;23;20028;-79
2024/01/27 05:18:34;;;;;;;5.78;3.55;;;;;;;4.77;81.97;100364.88;6202521;23;20047;-80
2024/01/27 05:21:19;;;;;;;3.97;2.78;;;;;;;4.93;80.46;100374.59;6202506;23;20044;-78
2024/01/27 05:24:05;;;;;;;7.03;3.30;;;;;;;4.89;80.58;100379.38;6201623;23;20318;-79
2024/01/27 05:26:50;;;;;;;4.22;2.50;;;;;;;4.98;79.84;100391.56;6203339;23;20027;-79
2024/01/27 05:29:40;;;;;;;25.63;12.73;;;;;;;4.87;80.56;100397.16;6202253;23;20505;-81
2024/01/27 05:32:24;;;;;;;6.85;4.32;;;;;;;4.95;80.07;100394.53;6202309;23;20043;-80
2024/01/27 05:35:10;;;;;;;7.53;4.65;;;;;;;4.99;79.81;100410.81;6201438;23;20032;-80
2024/01/27 05:37:56;;;;;;;7.18;3.50;;;;;;;5.14;78.52;100414.44;6204219;23;20043;-78
2024/01/27 05:40:42;;;;;;;6.15;3.28;;;;;;;5.09;77.69;100391.22;6201670;23;20027;-79
2024/01/27 05:43:27;;;;;;;6.47;3.80;;;;;;;5.19;76.28;100396.31;6205062;23;20205;-79
2024/01/27 05:46:13;;;;;;;6.35;3.47;;;;;;;5.45;74.75;100424.28;6204797;23;20441;-78
2024/01/27 05:49:02;;;;;;;5.50;3.00;;;;;;;5.66;72.78;100426.41;6183887;23;20318;-79
2024/01/27 05:51:50;;;;;;;3.53;2.95;;;;;;;5.73;71.81;100430.81;6205925;23;20438;-79
2024/01/27 05:54:36;;;;;;;4.13;3.17;;;;;;;5.83;70.52;100425.38;6209679;23;20031;-76
2024/01/27 05:57:21;;;;;;;10.10;7.70;;;;;;;5.70;71.22;100420.66;6206545;23;20028;-79
2024/01/27 06:00:09;;;;;;;5.80;4.70;;;;;;;5.71;71.14;100437.28;6215977;23;20032;-78
2024/01/27 06:02:54;;;;;;;6.03;4.05;;;;;;;5.62;71.98;100440.94;6211856;23;20027;-79
2024/01/27 06:05:41;;;;;;;3.70;1.50;;;;;;;5.89;69.78;100448.47;6207915;23;20036;-77
2024/01/27 06:08:26;;;;;;;3.50;2.30;;;;;;;5.71;71.17;100447.84;6181106;23;20441;-80
2024/01/27 06:11:12;;;;;;;7.15;4.20;;;;;;;5.66;71.73;100447.50;6202947;23;20031;-81
2024/01/27 06:13:58;;;;;;;3.25;2.20;;;;;;;5.65;70.95;100422.13;6181222;23;20433;-79
2024/01/27 06:16:43;;;;;;;3.10;1.92;;;;;;;6.02;67.72;100429.47;6201710;23;20024;-79
2024/01/27 06:19:29;;;;;;;5.05;2.03;;;;;;;5.75;68.80;100425.41;6201694;23;20318;-78
2024/01/27 06:22:14;;;;;;;5.50;2.67;;;;;;;5.66;70.12;100440.41;6159802;23;20032;-80
2024/01/27 06:25:00;;;;;;;2.40;1.85;;;;;;;5.78;68.78;100451.44;6180938;23;20433;-80
2024/01/27 06:27:45;;;;;;;2.90;1.60;;;;;;;5.77;68.92;100461.16;6201521;23;20323;-77
2024/01/27 06:30:31;;;;;;;3.47;1.85;;;;;;;5.83;68.92;100457.03;6159943;23;20032;-80
2024/01/27 06:33:17;;;;;;;4.07;2.05;;;;;;;5.95;67.46;100460.97;6202026;23;20465;-78
2024/01/27 06:36:02;;;;;;;4.38;1.40;;;;;;;6.06;66.18;100464.25;6180698;23;20319;-79
2024/01/27 06:38:47;;;;;;;1.52;1.30;;;;;;;6.00;65.91;100461.31;6201669;23;20039;-78
2024/01/27 06:41:32;;;;;;;4.78;2.45;;;;;;;6.08;65.16;100478.09;6223175;23;20422;-80
2024/01/27 06:44:18;;;;;;;4.03;2.42;;;;;;;5.98;65.62;100479.09;6201551;23;20314;-79
2024/01/27 06:47:03;;;;;;;4.90;2.45;;;;;;;6.02;64.88;100469.06;6202018;23;20043;-78
2024/01/27 06:49:48;;;;;;;4.10;2.20;;;;;;;6.01;65.39;100477.94;6201922;23;20040;-79
2024/01/27 06:52:34;;;;;;;5.15;3.22;;;;;;;6.02;64.84;100490.19;6180298;23;20465;-80
2024/01/27 06:55:19;;;;;;;7.22;3.90;;;;;;;6.13;63.88;100486.34;6201809;23;20345;-80
2024/01/27 06:58:05;;;;;;;4.80;3.25;;;;;;;6.01;64.35;100502.53;6201110;23;20027;-77
2024/01/27 07:00:50;;;;;;;6.30;2.72;;;;;;;5.99;64.82;100512.44;6159914;23;20032;-77
2024/01/27 07:03:36;;;;;;;8.30;3.42;;;;;;;5.87;65.03;100505.84;6203501;23;20322;-78
2024/01/27 07:06:21;;;;;;;7.72;3.40;;;;;;;5.98;64.64;100521.31;6202043;23;20028;-78
2024/01/27 07:09:06;;;;;;;7.50;2.88;;;;;;;6.00;64.17;100522.00;6201480;23;20043;-78
2024/01/27 07:11:52;;;;;;;3.95;2.45;;;;;;;6.09;63.19;100519.34;6180382;23;20315;-79
2024/01/27 07:14:37;;;;;;;4.70;2.30;;;;;;;6.00;63.70;100515.91;6183870;23;20028;-79
2024/01/27 07:17:23;;;;;;;3.95;2.42;;;;;;;5.99;63.45;100536.19;6185812;23;20315;-79
2024/01/27 07:20:08;;;;;;;5.60;2.92;;;;;;;5.92;63.91;100527.28;6192156;23;20485;-77
2024/01/27 07:22:53;;;;;;;4.07;2.55;;;;;;;5.86;64.30;100530.56;6188570;23;20027;-79
2024/01/27 07:25:39;;;;;;;5.10;2.65;;;;;;;6.03;62.78;100539.31;6204944;23;20449;-79
2024/01/27 07:28:24;;;;;;;7.38;1.88;;;;;;;5.99;63.84;100541.47;6180200;23;20032;-79
2024/01/27 07:31:11;;;;;;;8.02;3.63;;;;;;;5.93;63.12;100525.50;6180183;23;20323;-79
2024/01/27 07:33:56;;;;;;;11.10;4.45;;;;;;;6.04;63.45;100556.78;6178359;23;20430;-82
2024/01/27 07:36:42;;;;;;;9.20;3.67;;;;;;;5.93;63.32;100530.75;6200147;23;20319;-78
2024/01/27 07:39:27;;;;;;;3.17;1.77;;;;;;;6.02;62.78;100562.25;6201396;23;20028;-80
2024/01/27 07:42:13;;;;;;;3.10;2.00;;;;;;;6.07;63.56;100569.66;6201991;23;20445;-79
2024/01/27 07:44:58;;;;;;;4.50;2.72;;;;;;;6.04;61.73;100554.16;6159362;23;20472;-77
2024/01/27 07:47:43;;;;;;;5.57;2.60;;;;;;;6.01;62.04;100550.03;6203039;23;20043;-78
2024/01/27 07:50:29;;;;;;;5.20;2.08;;;;;;;6.03;61.67;100553.31;6203812;23;20475;-79
2024/01/27 07:53:15;;;;;;;4.03;2.40;;;;;;;6.13;60.95;100549.69;6203497;23;20436;-79
2024/01/27 07:56:01;;;;;;;1.88;1.50;;;;;;;6.14;60.82;100553.97;6203729;23;20027;-80
2024/01/27 07:58:47;;;;;;;4.35;2.17;;;;;;;6.12;60.72;100561.25;6203353;23;20024;-79
2024/01/27 08:01:33;;;;;;;2.63;1.90;;;;;;;6.11;61.72;100570.13;6182937;23;20441;-79
2024/01/27 08:04:19;;;;;;;2.58;1.75;;;;;;;6.06;60.50;100560.09;6203840;23;20031;-79
2024/01/27 08:07:09;;;;;;;2.45;1.27;;;;;;;6.12;60.06;100571.81;6181824;23;20438;-80
2024/01/27 08:09:56;;;;;;;2.13;1.60;;;;;;;6.17;60.30;100575.59;6182240;23;20039;-77
2024/01/27 08:12:42;;;;;;;5.03;2.42;;;;;;;6.16;61.16;100589.75;6182161;23;20043;-79
2024/01/27 08:15:27;;;;;;;3.78;3.00;;;;;;;6.19;59.33;100578.06;6160782;23;20024;-78
2024/01/27 08:18:13;;;;;;;2.58;1.40;;;;;;;6.21;59.31;100578.72;6203234;23;20043;-77
2024/01/27 08:20:58;;;;;;;3.83;2.08;;;;;;;6.07;59.35;100579.38;6202834;23;20441;-77
2024/01/27 08:23:44;;;;;;;3.95;2.10;;;;;;;6.14;59.08;100583.00;6161527;23;20027;-79
2024/01/27 08:26:29;;;;;;;3.67;2.30;;;;;;;6.20;59.27;100579.69;6182166;23;20043;-77
2024/01/27 08:29:14;;;;;;;2.85;2.00;;;;;;;6.34;59.60;100617.78;6181492;23;20311;-77
2024/01/27 08:32:00;;;;;;;4.60;2.10;;;;;;;6.32;59.49;100604.75;6204764;23;20445;-77
2024/01/27 08:34:47;;;;;;;7.95;2.78;;;;;;;6.41;59.95;100613.47;6185158;23;20311;-78
2024/01/27 08:37:38;;;;;;;9.77;4.60;;;;;;;6.45;59.30;100612.97;6189273;23;20441;-77
2024/01/27 08:40:24;;;;;;;10.95;5.88;;;;;;;6.48;59.60;100625.84;6212832;23;20028;-77
2024/01/27 08:43:10;;;;;;;11.13;6.10;;;;;;;6.29;57.56;100614.81;6206389;23;20043;-76
2024/01/27 08:45:56;;;;;;;5.60;2.30;;;;;;;6.34;58.13;100637.09;6194536;23;20429;-79
2024/01/27 08:48:42;;;;;;;3.38;2.15;;;;;;;6.24;59.16;100617.97;6183054;23;20111;-79
2024/01/27 08:51:29;;;;;;;5.65;3.25;;;;;;;6.24;58.49;100620.63;6203238;23;20028;-78
2024/01/27 08:54:14;;;;;;;1.88;1.52;;;;;;;6.21;58.21;100619.13;6203589;23;20433;-80
2024/01/27 08:57:00;;;;;;;4.97;2.80;;;;;;;6.32;58.25;100630.34;6181595;23;20048;-80
2024/01/27 08:59:45;;;;;;;5.05;2.55;;;;;;;6.35;57.65;100641.38;6202783;23;20447;-79
2024/01/27 09:02:30;;;;;;;7.30;3.53;;;;;;;6.25;58.76;100649.47;6182223;23;20437;-77
2024/01/27 09:05:16;;;;;;;3.22;1.98;;;;;;;6.22;57.84;100649.00;6202770;23;20043;-80
2024/01/27 09:08:03;;;;;;;2.50;2.05;;;;;;;6.18;57.71;100645.03;6161588;23;20028;-78
2024/01/27 09:10:48;;;;;;;7.93;3.00;;;;;;;6.16;58.08;100650.47;6160917;23;20445;-78
2024/01/27 09:13:34;;;;;;;7.90;2.15;;;;;;;6.13;57.81;100642.06;6204379;23;20028;-77
2024/01/27 09:16:19;;;;;;;4.38;2.17;;;;;;;6.18;59.16;100650.31;6182186;23;20043;-79
2024/01/27 09:19:04;;;;;;;3.42;1.95;;;;;;;6.17;58.90;100653.94;6181167;23;20027;-78
2024/01/27 09:21:50;;;;;;;6.65;2.88;;;;;;;6.17;58.53;100659.22;6202642;23;20027;-78
2024/01/27 09:24:35;;;;;;;2.70;1.80;;;;;;;6.25;57.56;100653.94;6181676;23;20043;-77
2024/01/27 09:27:20;;;;;;;5.65;2.85;;;;;;;6.24;58.31;100676.06;6203679;23;20031;-79
2024/01/27 09:30:06;;;;;;;13.55;2.10;;;;;;;6.32;58.10;100670.75;6201986;23;20027;-78
2024/01/27 09:32:52;;;;;;;3.40;1.98;;;;;;;6.31;57.62;100670.94;6203287;23;20047;-76
2024/01/27 09:35:37;;;;;;;2.28;1.75;;;;;;;6.36;57.50;100674.72;6202828;23;20028;-79
2024/01/27 09:38:23;;;;;;;4.28;2.33;;;;;;;6.56;56.72;100674.38;6203556;23;20320;-78
2024/01/27 09:41:09;;;;;;;5.93;2.13;;;;;;;6.60;57.33;100675.69;6204009;23;20322;-77
2024/01/27 09:43:57;;;;;;;5.85;2.90;;;;;;;6.57;57.59;100663.63;6160337;23;20417;-78
2024/01/27 09:46:42;;;;;;;10.35;4.95;;;;;;;6.71;57.63;100668.22;6202004;23;20032;-80
2024/01/27 09:49:27;;;;;;;6.35;3.72;;;;;;;6.90;57.56;100664.38;6202546;23;20043;-77
2024/01/27 09:52:13;;;;;;;1.90;1.55;;;;;;;6.91;57.12;100668.66;6203146;23;20465;-79
2024/01/27 09:54:58;;;;;;;4.43;2.10;;;;;;;6.95;55.79;100669.94;6205728;23;20264;-77
2024/01/27 09:57:44;;;;;;;2.72;2.00;;;;;;;6.99;55.00;100675.75;6187245;23;20047;-77
2024/01/27 10:00:29;;;;;;;4.20;2.40;;;;;;;6.91;54.34;100667.84;6189371;23;20433;-78
2024/01/27 10:03:16;;;;;;;4.03;2.00;;;;;;;7.05;55.10;100677.72;6186200;23;20028;-78
2024/01/27 10:06:02;;;;;;;4.00;2.47;;;;;;;7.17;55.16;100673.66;6160981;23;20043;-78
2024/01/27 10:08:56;;;;;;;4.30;2.30;;;;;;;7.26;53.73;100665.69;6202004;23;20441;-79
2024/01/27 10:11:46;;;;;;;2.23;1.90;;;;;;;7.23;54.28;100660.75;6181475;23;20031;-79
2024/01/27 10:14:41;;;;;;;8.45;2.58;;;;;;;7.30;54.10;100656.41;6201422;23;20048;-77
2024/01/27 10:17:32;;;;;;;5.38;2.33;;;;;;;7.46;53.66;100651.06;6202421;23;20039;-78
2024/01/27 10:20:19;;;;;;;4.68;1.60;;;;;;;7.22;53.43;100645.91;6203317;23;20434;-78
2024/01/27 10:23:12;;;;;;;3.72;1.77;;;;;;;7.35;53.27;100615.25;6180792;23;20315;-78
2024/01/27 10:25:58;;;;;;;4.47;2.20;;;;;;;7.64;54.06;100626.94;6181097;23;20318;-78
2024/01/27 10:28:55;;;;;;;7.03;3.13;;;;;;;7.45;51.88;100617.66;6201639;23;20027;-76
2024/01/27 10:31:41;;;;;;;3.17;1.85;;;;;;;7.36;52.24;100622.19;6202134;23;20031;-78
2024/01/27 10:34:28;;;;;;;5.55;3.25;;;;;;;7.61;52.33;100624.66;6160654;23;20027;-81
2024/01/27 10:37:13;;;;;;;7.15;2.60;;;;;;;7.35;51.56;100604.66;6202476;23;20031;-79
2024/01/27 10:40:10;;;;;;;5.13;1.95;;;;;;;7.34;51.24;100610.97;6180826;23;20094;-79
2024/01/27 10:43:23;;;;;;;5.55;3.00;;;;;;;7.37;50.71;100609.78;6181383;23;20032;-78
2024/01/27 10:46:08;;;;;;;3.08;2.13;;;;;;;7.39;51.31;100607.78;6128916;23;20456;-78
2024/01/27 10:48:53;;;;;;;7.47;3.13;;;;;;;7.34;49.96;100618.06;6149220;23;20032;-77
2024/01/27 10:51:46;;;;;;;6.95;2.97;;;;;;;7.52;49.20;100605.41;6129422;23;20024;-77
2024/01/27 10:54:33;;;;;;;5.70;2.15;;;;;;;7.60;48.29;100604.50;6129462;23;20048;-79
2024/01/27 10:57:20;;;;;;;4.88;1.95;;;;;;;7.62;49.34;100613.09;6149706;23;20315;-78
2024/01/27 11:00:06;;;;;;;5.75;2.50;;;;;;;8.04;49.71;100602.00;6128605;23;20434;-79
2024/01/27 11:02:54;;;;;;;4.95;2.60;;;;;;;7.72;48.57;100595.16;6128161;23;20311;-77
2024/01/27 11:05:39;;;;;;;5.93;3.75;;;;;;;7.50;50.11;100588.88;6149956;23;20031;-78
2024/01/27 11:08:27;;;;;;;4.13;2.25;;;;;;;7.59;49.58;100598.41;6128841;23;20441;-80
2024/01/27 11:11:13;;;;;;;5.43;2.42;;;;;;;7.62;50.23;100603.34;6149775;23;20028;-78
2024/01/27 11:14:06;;;;;;;5.85;2.50;;;;;;;7.20;49.98;100582.59;6132428;23;20422;-77
2024/01/27 11:16:56;;;;;;;7.07;2.90;;;;;;;7.33;49.61;100589.97;6132546;23;20048;-78
2024/01/27 11:19:42;;;;;;;4.65;2.20;;;;;;;7.37;50.31;100600.03;6138998;23;20048;-77
2024/01/27 11:22:28;;;;;;;2.88;1.73;;;;;;;7.19;48.89;100596.81;6138403;23;20028;-78
2024/01/27 11:25:16;;;;;;;5.88;3.03;;;;;;;7.34;49.49;100600.38;6133946;23;20044;-79
2024/01/27 11:28:13;;;;;;;3.63;1.80;;;;;;;7.35;50.72;100604.66;6151575;23;20314;-78
2024/01/27 11:30:58;;;;;;;6.38;3.08;;;;;;;7.26;51.00;100597.78;6150946;23;20028;-78
2024/01/27 11:33:46;;;;;;;5.57;2.10;;;;;;;7.01;49.12;100617.41;6129959;23;20437;-78
2024/01/27 11:36:32;;;;;;;3.35;2.10;;;;;;;7.32;49.11;100594.44;6151649;23;20032;-79
2024/01/27 11:39:28;;;;;;;1.88;1.50;;;;;;;7.33;49.88;100584.66;6130466;23;20318;-77
2024/01/27 11:42:15;;;;;;;3.72;1.98;;;;;;;7.74;49.57;100590.50;6130757;23;20028;-77
2024/01/27 11:45:01;;;;;;;9.33;2.47;;;;;;;7.51;48.57;100571.16;6102511;23;1167664;-78
2024/01/27 11:47:47;;;;;;;4.93;2.88;;;;;;;7.69;49.13;100584.09;6183251;23;20028;-78
2024/01/27 11:50:33;;;;;;;3.15;2.05;;;;;;;7.69;47.96;100571.69;6183139;23;20051;-78
2024/01/27 11:53:18;;;;;;;11.57;1.92;;;;;;;7.88;47.97;100567.72;6206659;23;20338;-79
2024/01/27 11:56:04;;;;;;;5.90;3.03;;;;;;;7.84;49.07;100585.78;6210321;23;20031;-78
2024/01/27 11:58:50;;;;;;;6.63;3.10;;;;;;;7.53;47.68;100569.19;6208402;23;20044;-80
2024/01/27 12:01:37;;;;;;;3.75;2.33;;;;;;;7.84;48.48;100588.44;6167223;23;20084;-79
2024/01/27 12:04:22;;;;;;;5.78;3.50;;;;;;;7.58;48.48;100594.13;6187190;23;20031;-78
2024/01/27 12:07:07;;;;;;;4.38;2.28;;;;;;;7.46;48.33;100574.34;6186088;23;20023;-83
2024/01/27 12:09:53;;;;;;;5.60;3.13;;;;;;;7.18;49.14;100568.75;6165760;23;20043;-78
2024/01/27 12:12:39;;;;;;;3.47;2.17;;;;;;;7.35;49.18;100578.22;6187338;23;20023;-79
2024/01/27 12:15:26;;;;;;;6.03;2.75;;;;;;;7.42;48.45;100579.16;6161587;23;20028;-80
2024/01/27 12:18:12;;;;;;;2.88;1.50;;;;;;;7.28;48.67;100560.59;6182438;23;20043;-80
2024/01/27 12:20:57;;;;;;;8.52;3.15;;;;;;;7.59;48.98;100561.34;6203834;23;20319;-80
2024/01/27 12:23:52;;;;;;;2.95;1.70;;;;;;;7.47;48.63;100562.75;6162985;23;20027;-79
2024/01/27 12:26:39;;;;;;;6.70;2.65;;;;;;;7.61;47.72;100566.44;6182944;23;20287;-78
2024/01/27 12:29:25;;;;;;;4.35;2.15;;;;;;;7.45;47.33;100558.66;6183859;23;20115;-81
2024/01/27 12:32:11;;;;;;;8.00;2.97;;;;;;;7.58;46.26;100537.69;6162015;23;20340;-81
2024/01/27 12:35:00;;;;;;;2.15;1.30;;;;;;;7.51;46.67;100528.84;6186372;23;20024;-80
2024/01/27 12:37:45;;;;;;;5.05;2.20;;;;;;;7.62;45.52;100533.72;6187386;23;20044;-80
2024/01/27 12:40:31;;;;;;;3.10;1.40;;;;;;;7.63;46.50;100545.94;6198387;23;20334;-80
2024/01/27 12:43:17;;;;;;;4.90;2.03;;;;;;;7.69;46.08;100520.59;6193702;23;20043;-78
2024/01/27 12:46:03;;;;;;;6.20;2.25;;;;;;;7.91;46.59;100506.50;6208673;23;20028;-79
2024/01/27 12:48:48;;;;;;;5.07;2.63;;;;;;;7.77;45.75;100529.28;6181975;23;20028;-77
2024/01/27 12:51:34;;;;;;;7.25;1.90;;;;;;;7.80;45.65;100518.34;6183059;23;20028;-79
2024/01/27 12:54:20;;;;;;;3.15;2.20;;;;;;;7.86;46.10;100507.00;6203473;23;20441;-79